createdAt,value
2018-12-22T00:01:56.134Z,17.33
2018-12-22T00:04:25.626Z,18.47
2018-12-22T00:06:55.774Z,17.97
2018-12-22T00:09:25.272Z,18.83
2018-12-22T00:11:55.014Z,15.60
2018-12-22T00:14:24.526Z,12.83
2018-12-22T00:16:54.052Z,13.13
2018-12-22T00:19:23.541Z,12.70
2018-12-22T00:21:53.039Z,15.03
2018-12-22T00:24:22.562Z,10.10
2018-12-22T00:26:52.051Z,12.67
2018-12-22T00:29:21.549Z,12.40
2018-12-22T00:31:51.037Z,8.87
2018-12-22T00:34:20.558Z,5.07
2018-12-22T00:36:50.127Z,5.90
2018-12-22T00:39:19.609Z,9.20
2018-12-22T00:41:49.171Z,10.73
2018-12-22T00:44:18.670Z,8.97
2018-12-22T00:46:48.166Z,8.53
2018-12-22T00:49:17.674Z,6.67
2018-12-22T00:51:47.195Z,5.67
2018-12-22T00:54:18.053Z,8.37
2018-12-22T00:56:47.858Z,7.20
2018-12-22T00:59:17.366Z,10.53
2018-12-22T01:01:46.874Z,7.37
2018-12-22T01:04:16.358Z,9.37
2018-12-22T01:06:45.855Z,11.57
2018-12-22T01:09:15.685Z,7.70
2018-12-22T01:11:45.630Z,5.43
2018-12-22T01:14:15.155Z,5.40
2018-12-22T01:16:45.653Z,10.03
2018-12-22T01:19:15.147Z,15.97
2018-12-22T01:21:44.674Z,7.13
2018-12-22T01:24:14.171Z,8.43
2018-12-22T01:26:43.658Z,9.47
2018-12-22T01:29:13.205Z,10.73
2018-12-22T01:31:42.705Z,9.17
2018-12-22T01:34:12.207Z,10.03
2018-12-22T01:36:41.722Z,8.50
2018-12-22T01:39:11.216Z,6.50
2018-12-22T01:41:40.702Z,6.33
2018-12-22T01:44:10.226Z,8.93
2018-12-22T01:46:39.712Z,7.13
2018-12-22T01:49:09.212Z,10.27
2018-12-22T01:51:39.815Z,7.03
2018-12-22T01:54:09.354Z,10.57
2018-12-22T01:56:38.846Z,8.37
2018-12-22T01:59:08.335Z,7.07
2018-12-22T02:01:37.846Z,5.67
2018-12-22T02:04:06.979Z,9.43
2018-12-22T02:06:36.375Z,8.37
2018-12-22T02:09:07.386Z,10.17
2018-12-22T02:11:36.878Z,12.10
2018-12-22T02:14:06.383Z,6.17
2018-12-22T02:16:35.894Z,10.50
2018-12-22T02:19:05.425Z,7.43
2018-12-22T02:21:34.911Z,11.63
2018-12-22T02:24:04.935Z,9.80
2018-12-22T02:26:34.419Z,8.73
2018-12-22T02:29:04.379Z,7.73
2018-12-22T02:31:33.898Z,15.50
2018-12-22T02:34:03.428Z,7.43
2018-12-22T02:36:32.927Z,5.53
2018-12-22T02:39:02.105Z,8.67
2018-12-22T02:41:31.899Z,8.93
2018-12-22T02:44:01.406Z,11.90
2018-12-22T02:46:30.918Z,11.80
2018-12-22T02:49:00.431Z,7.40
2018-12-22T02:51:30.003Z,11.67
2018-12-22T02:53:59.502Z,10.13
2018-12-22T02:56:29.003Z,8.50
2018-12-22T02:59:05.833Z,15.53
2018-12-22T03:01:30.007Z,6.97
2018-12-22T03:03:59.939Z,10.50
2018-12-22T03:06:29.687Z,10.80
2018-12-22T03:08:59.176Z,8.97
2018-12-22T03:11:28.672Z,7.57
2018-12-22T03:13:58.159Z,5.00
2018-12-22T03:16:28.162Z,4.70
2018-12-22T03:18:57.670Z,5.30
2018-12-22T03:21:27.182Z,7.60
2018-12-22T03:23:56.695Z,12.13
2018-12-22T03:26:26.187Z,6.23
2018-12-22T03:28:55.770Z,7.47
2018-12-22T03:31:25.275Z,8.30
2018-12-22T03:33:54.779Z,10.47
2018-12-22T03:36:24.315Z,14.00
2018-12-22T03:38:53.803Z,4.30
2018-12-22T03:41:23.278Z,7.07
2018-12-22T03:43:52.766Z,7.10
2018-12-22T03:46:22.259Z,7.23
2018-12-22T03:48:51.738Z,6.93
2018-12-22T03:51:21.218Z,5.03
2018-12-22T03:53:50.740Z,4.87
2018-12-22T03:56:20.238Z,7.57
2018-12-22T03:58:49.739Z,6.87
2018-12-22T04:01:19.287Z,9.30
2018-12-22T04:03:49.863Z,3.03
2018-12-22T04:06:19.406Z,5.30
2018-12-22T04:08:48.876Z,2.87
2018-12-22T04:11:18.383Z,2.83
2018-12-22T04:13:47.877Z,5.70
2018-12-22T04:16:17.373Z,6.30
2018-12-22T04:18:46.871Z,4.87
2018-12-22T04:21:16.404Z,3.40
2018-12-22T04:23:45.882Z,2.20
2018-12-22T04:26:15.447Z,2.93
2018-12-22T04:28:44.962Z,1.40
2018-12-22T04:31:14.443Z,2.53
2018-12-22T04:33:43.959Z,1.77
2018-12-22T04:36:13.471Z,4.23
2018-12-22T04:38:42.973Z,4.03
2018-12-22T04:41:12.452Z,0.50
2018-12-22T04:43:43.078Z,2.70
2018-12-22T04:46:12.571Z,1.43
2018-12-22T04:48:42.064Z,1.63
2018-12-22T04:51:11.550Z,3.70
2018-12-22T04:53:41.042Z,1.47
2018-12-22T04:56:10.531Z,1.37
2018-12-22T04:58:40.049Z,3.27
2018-12-22T05:01:09.540Z,1.67
2018-12-22T05:03:39.010Z,1.93
2018-12-22T05:06:08.604Z,0.80
2018-12-22T05:08:38.078Z,1.23
2018-12-22T05:11:07.550Z,0.93
2018-12-22T05:13:37.058Z,0.60
2018-12-22T05:16:06.570Z,1.00
2018-12-22T05:18:36.058Z,1.30
2018-12-22T05:21:06.708Z,2.20
2018-12-22T05:23:36.355Z,1.97
2018-12-22T05:26:05.766Z,3.73
2018-12-22T05:28:35.251Z,1.33
2018-12-22T05:31:04.373Z,2.63
2018-12-22T05:33:33.774Z,1.73
2018-12-22T05:36:03.323Z,0.97
2018-12-22T05:38:32.842Z,0.63
2018-12-22T05:41:02.324Z,0.87
2018-12-22T05:43:31.814Z,0.23
2018-12-22T05:46:01.321Z,0.80
2018-12-22T05:48:30.956Z,0.47
2018-12-22T05:51:00.458Z,0.50
2018-12-22T05:53:29.947Z,2.13
2018-12-22T05:55:59.482Z,0.47
2018-12-22T05:58:28.963Z,0.30
2018-12-22T06:00:58.443Z,2.17
2018-12-22T06:03:27.954Z,2.20
2018-12-22T06:05:57.466Z,0.33
2018-12-22T06:08:26.994Z,0.77
2018-12-22T06:10:56.479Z,2.60
2018-12-22T06:13:25.810Z,0.90
2018-12-22T06:15:55.322Z,1.70
2018-12-22T06:18:24.903Z,1.77
2018-12-22T06:20:54.518Z,1.80
2018-12-22T06:23:24.046Z,0.50
2018-12-22T06:25:53.531Z,1.03
2018-12-22T06:28:23.019Z,4.90
2018-12-22T06:30:52.904Z,2.97
2018-12-22T06:33:22.426Z,2.83
2018-12-22T06:35:51.940Z,1.03
2018-12-22T06:38:21.444Z,4.03
2018-12-22T06:40:51.033Z,7.67
2018-12-22T06:43:21.378Z,2.93
2018-12-22T06:45:50.922Z,2.83
2018-12-22T06:48:21.186Z,1.87
2018-12-22T06:50:50.818Z,1.50
2018-12-22T06:53:20.486Z,2.23
2018-12-22T06:55:49.982Z,3.73
2018-12-22T06:58:19.474Z,1.80
2018-12-22T07:00:49.007Z,4.90
2018-12-22T07:03:18.504Z,6.77
2018-12-22T07:05:48.018Z,2.30
2018-12-22T07:08:17.510Z,2.00
2018-12-22T07:10:46.662Z,1.13
2018-12-22T07:13:16.079Z,0.97
2018-12-22T07:15:45.554Z,1.03
2018-12-22T07:18:14.690Z,0.70
2018-12-22T07:20:43.797Z,1.23
2018-12-22T07:23:13.378Z,1.37
2018-12-22T07:25:42.629Z,5.90
2018-12-22T07:28:12.311Z,3.40
2018-12-22T07:30:41.815Z,4.10
2018-12-22T07:33:11.455Z,2.30
2018-12-22T07:35:40.598Z,2.37
2018-12-22T07:38:10.022Z,1.30
2018-12-22T07:40:39.511Z,2.27
2018-12-22T07:43:09.051Z,2.03
2018-12-22T07:45:38.550Z,2.10
2018-12-22T07:48:09.222Z,1.17
2018-12-22T07:50:39.063Z,4.00
2018-12-22T07:53:08.571Z,3.60
2018-12-22T07:55:37.757Z,1.43
2018-12-22T07:58:07.158Z,0.50
2018-12-22T08:00:36.639Z,1.53
2018-12-22T08:03:06.147Z,2.53
2018-12-22T08:08:32.854Z,2.50
2018-12-22T08:11:02.283Z,3.30
2018-12-22T08:13:31.850Z,3.40
2018-12-22T08:16:01.363Z,1.00
2018-12-22T08:18:30.907Z,0.63
2018-12-22T08:21:01.519Z,0.63
2018-12-22T08:23:31.010Z,0.30
2018-12-22T08:26:00.519Z,0.90
2018-12-22T08:28:30.014Z,0.87
2018-12-22T08:30:59.494Z,1.07
2018-12-22T08:33:28.995Z,2.60
2018-12-22T08:35:58.519Z,1.40
2018-12-22T08:38:28.007Z,0.77
2018-12-22T08:40:57.499Z,2.70
2018-12-22T08:43:28.102Z,1.30
2018-12-22T08:45:58.254Z,1.13
2018-12-22T08:48:27.746Z,0.87
2018-12-22T08:50:57.242Z,5.83
2018-12-22T08:53:30.071Z,6.40
2018-12-22T08:55:59.587Z,2.90
2018-12-22T08:58:29.058Z,1.70
2018-12-22T09:00:58.569Z,1.13
2018-12-22T09:03:28.092Z,1.17
2018-12-22T09:05:57.607Z,1.00
2018-12-22T09:08:27.123Z,1.30
2018-12-22T09:11:00.066Z,2.50
2018-12-22T09:13:32.223Z,2.83
2018-12-22T09:16:01.942Z,3.20
2018-12-22T09:18:35.461Z,3.10
2018-12-22T09:21:17.293Z,2.00
2018-12-22T09:23:46.756Z,1.37
2018-12-22T09:26:21.603Z,1.77
2018-12-22T09:28:51.888Z,2.50
2018-12-22T09:31:21.418Z,1.37
2018-12-22T09:33:53.681Z,1.90
2018-12-22T09:36:23.214Z,1.30
2018-12-22T09:38:52.604Z,2.20
2018-12-22T09:41:22.236Z,4.63
2018-12-22T09:43:51.739Z,1.13
2018-12-22T09:46:21.274Z,2.20
2018-12-22T09:48:51.139Z,1.10
2018-12-22T09:51:20.671Z,2.63
2018-12-22T09:53:50.206Z,2.60
2018-12-22T09:56:19.355Z,1.13
2018-12-22T09:58:48.763Z,1.83
2018-12-22T10:01:18.291Z,2.03
2018-12-22T10:03:47.786Z,0.90
2018-12-22T10:06:18.605Z,2.97
2018-12-22T10:08:48.626Z,2.30
2018-12-22T10:11:19.262Z,2.23
2018-12-22T10:13:48.778Z,1.23
2018-12-22T10:16:18.295Z,2.90
2018-12-22T10:18:47.478Z,4.53
2018-12-22T10:22:48.848Z,1.77
2018-12-22T10:25:18.110Z,1.73
2018-12-22T10:27:49.679Z,1.63
2018-12-22T10:30:19.619Z,2.63
2018-12-22T10:32:49.157Z,7.93
2018-12-22T10:35:25.278Z,14.40
2018-12-22T10:37:54.373Z,7.07
2018-12-22T10:40:23.799Z,1.20
2018-12-22T10:42:52.970Z,2.77
2018-12-22T10:45:22.475Z,1.83
2018-12-22T10:47:52.023Z,1.37
2018-12-22T10:50:21.518Z,1.73
2018-12-22T10:52:51.033Z,1.50
2018-12-22T10:55:21.651Z,1.40
2018-12-22T10:57:51.423Z,1.90
2018-12-22T11:00:20.546Z,5.67
2018-12-22T11:02:49.962Z,22.50
2018-12-22T11:05:19.543Z,32.00
2018-12-22T11:07:49.270Z,5.33
2018-12-22T11:10:21.896Z,2.47
2018-12-22T11:12:55.315Z,2.70
2018-12-22T11:15:25.627Z,2.20
2018-12-22T11:17:56.338Z,6.77
2018-12-22T11:20:26.288Z,1.93
2018-12-22T11:22:55.426Z,3.50
2018-12-22T11:25:26.312Z,1.97
2018-12-22T11:27:57.105Z,3.87
2018-12-22T11:30:27.489Z,1.87
2018-12-22T11:32:56.907Z,1.97
2018-12-22T11:35:26.415Z,1.43
2018-12-22T11:37:55.926Z,1.97
2018-12-22T11:40:25.426Z,1.50
2018-12-22T11:42:54.986Z,1.57
2018-12-22T11:45:24.516Z,1.93
2018-12-22T11:48:11.496Z,1.10
2018-12-22T11:50:40.940Z,2.67
2018-12-22T11:53:10.054Z,1.10
2018-12-22T11:55:39.470Z,1.33
2018-12-22T11:58:09.010Z,6.30
2018-12-22T12:00:38.571Z,1.23
2018-12-22T12:03:08.059Z,4.97
2018-12-22T12:05:37.634Z,1.50
2018-12-22T12:08:07.171Z,2.10
2018-12-22T12:10:36.667Z,2.83
2018-12-22T12:13:05.797Z,1.50
2018-12-22T12:15:43.482Z,2.80
2018-12-22T12:18:18.151Z,2.00
2018-12-22T12:20:47.575Z,2.23
2018-12-22T12:23:17.086Z,2.53
2018-12-22T12:25:46.598Z,3.10
2018-12-22T12:28:18.663Z,1.90
2018-12-22T12:30:50.754Z,2.33
2018-12-22T12:33:21.291Z,1.60
2018-12-22T12:35:54.749Z,3.70
2018-12-22T12:38:24.861Z,2.33
2018-12-22T12:40:54.367Z,3.37
2018-12-22T12:43:23.907Z,1.73
2018-12-22T12:45:53.455Z,3.13
2018-12-22T12:48:25.062Z,3.00
2018-12-22T12:50:54.730Z,3.53
2018-12-22T12:53:24.298Z,2.50
2018-12-22T12:55:53.803Z,2.80
2018-12-22T12:58:23.306Z,2.17
2018-12-22T13:00:52.813Z,3.83
2018-12-22T13:03:22.323Z,4.17
2018-12-22T13:05:51.882Z,3.80
2018-12-22T13:08:21.375Z,5.33
2018-12-22T13:10:50.863Z,5.93
2018-12-22T13:13:31.235Z,4.47
2018-12-22T13:16:00.394Z,4.23
2018-12-22T13:18:29.446Z,5.43
2018-12-22T13:20:59.139Z,6.80
2018-12-22T13:23:28.306Z,6.47
2018-12-22T13:25:57.731Z,5.57
2018-12-22T13:28:26.948Z,6.60
2018-12-22T13:30:56.384Z,3.47
2018-12-22T13:33:25.581Z,4.17
2018-12-22T13:35:54.995Z,11.50
2018-12-22T13:38:25.388Z,5.70
2018-12-22T13:40:54.576Z,7.57
2018-12-22T13:43:24.011Z,5.87
2018-12-22T13:45:53.161Z,5.87
2018-12-22T13:48:22.913Z,5.60
2018-12-22T13:50:52.662Z,6.50
2018-12-22T13:53:22.478Z,12.13
2018-12-22T13:55:52.083Z,5.77
2018-12-22T13:58:21.590Z,6.67
2018-12-22T14:00:50.771Z,5.93
2018-12-22T14:03:27.932Z,7.87
2018-12-22T14:08:03.151Z,6.30
2018-12-22T14:10:32.735Z,4.90
2018-12-22T14:13:02.226Z,7.27
2018-12-22T14:15:32.248Z,6.63
2018-12-22T14:18:13.819Z,6.57
2018-12-22T14:20:44.026Z,5.30
2018-12-22T14:23:13.598Z,6.03
2018-12-22T14:25:43.335Z,7.20
2018-12-22T14:28:12.830Z,5.73
2018-12-22T14:30:41.999Z,7.20
2018-12-22T14:33:11.417Z,7.70
2018-12-22T14:35:45.276Z,8.97
2018-12-22T14:38:14.795Z,6.20
2018-12-22T14:40:44.295Z,8.80
2018-12-22T14:43:13.782Z,6.67
2018-12-22T14:45:43.291Z,9.33
2018-12-22T14:48:12.834Z,7.77
2018-12-22T14:50:42.403Z,10.87
2018-12-22T14:53:12.579Z,11.67
2018-12-22T14:55:41.726Z,10.60
2018-12-22T14:58:16.590Z,13.03
2018-12-22T15:00:46.558Z,16.87
2018-12-22T15:03:16.243Z,10.33
2018-12-22T15:05:45.744Z,12.13
2018-12-22T15:08:15.334Z,7.97
2018-12-22T15:10:44.951Z,7.33
2018-12-22T15:13:14.468Z,9.70
2018-12-22T15:15:43.985Z,7.13
2018-12-22T15:18:13.138Z,8.63
2018-12-22T15:20:42.555Z,10.63
2018-12-22T15:23:14.847Z,10.30
2018-12-22T15:25:44.374Z,12.37
2018-12-22T15:28:13.522Z,11.57
2018-12-22T15:30:42.936Z,9.40
2018-12-22T15:33:12.512Z,10.03
2018-12-22T15:35:41.682Z,10.90
2018-12-22T15:38:11.115Z,10.77
2018-12-22T15:40:41.087Z,9.97
2018-12-22T15:43:10.579Z,10.03
2018-12-22T15:45:40.094Z,9.33
2018-12-22T15:48:09.322Z,11.70
2018-12-22T15:50:40.271Z,11.90
2018-12-22T15:53:09.798Z,9.93
2018-12-22T15:55:39.306Z,11.67
2018-12-22T15:58:08.803Z,10.63
2018-12-22T16:00:38.303Z,10.70
2018-12-22T16:03:07.834Z,12.77
2018-12-22T16:05:36.968Z,13.33
2018-12-22T16:08:06.366Z,9.93
2018-12-22T16:10:35.980Z,9.67
2018-12-22T16:13:05.603Z,9.60
2018-12-22T16:15:35.155Z,13.20
2018-12-22T16:18:04.681Z,8.57
2018-12-22T16:20:34.236Z,7.33
2018-12-22T16:23:04.699Z,8.00
2018-12-22T16:25:34.210Z,7.17
2018-12-22T16:28:10.656Z,9.77
2018-12-22T16:30:45.882Z,8.70
2018-12-22T16:33:15.504Z,8.87
2018-12-22T16:35:44.993Z,9.77
2018-12-22T16:38:15.278Z,9.00
2018-12-22T16:40:44.783Z,8.60
2018-12-22T16:43:15.695Z,8.53
2018-12-22T16:45:48.034Z,7.53
2018-12-22T16:48:18.288Z,8.60
2018-12-22T16:50:48.154Z,7.60
2018-12-22T16:53:17.674Z,11.07
2018-12-22T16:55:47.203Z,10.20
2018-12-22T16:58:28.393Z,8.77
2018-12-22T17:03:22.199Z,10.07
2018-12-22T17:05:51.714Z,15.97
2018-12-22T17:08:21.251Z,11.13
2018-12-22T17:10:55.107Z,8.97
2018-12-22T17:13:24.379Z,14.73
2018-12-22T17:15:57.411Z,12.90
2018-12-22T17:18:27.410Z,12.47
2018-12-22T17:21:04.806Z,10.57
2018-12-22T17:23:41.800Z,12.53
2018-12-22T17:26:11.527Z,7.93
2018-12-22T17:28:41.050Z,7.63
2018-12-22T17:31:10.562Z,9.67
2018-12-22T17:33:40.087Z,8.73
2018-12-22T17:36:10.074Z,7.13
2018-12-22T17:38:40.371Z,8.93
2018-12-22T17:41:09.848Z,11.53
2018-12-22T17:43:41.199Z,8.83
2018-12-22T17:46:11.091Z,12.53
2018-12-22T17:48:41.435Z,10.10
2018-12-22T17:51:10.863Z,8.33
2018-12-22T17:53:40.446Z,10.83
2018-12-22T17:56:09.995Z,10.43
2018-12-22T17:58:39.848Z,9.57
2018-12-22T18:01:09.003Z,10.77
2018-12-22T18:03:38.810Z,9.90
2018-12-22T18:06:08.321Z,12.07
2018-12-22T18:08:39.286Z,9.57
2018-12-22T18:11:17.962Z,9.97
2018-12-22T18:13:47.914Z,10.03
2018-12-22T18:16:17.143Z,11.17
2018-12-22T18:18:48.288Z,9.63
2018-12-22T18:21:17.933Z,11.50
2018-12-22T18:23:49.154Z,11.50
2018-12-22T18:26:18.859Z,12.33
2018-12-22T18:28:48.187Z,9.63
2018-12-22T18:31:17.978Z,10.10
2018-12-22T18:33:47.297Z,14.03
2018-12-22T18:36:16.415Z,10.87
2018-12-22T18:38:46.104Z,12.27
2018-12-22T18:41:16.667Z,12.37
2018-12-22T18:43:46.656Z,12.67
2018-12-22T18:46:16.810Z,11.63
2018-12-22T18:48:46.759Z,13.33
2018-12-22T18:51:18.348Z,11.07
2018-12-22T18:53:48.230Z,11.53
2018-12-22T18:56:18.410Z,14.33
2018-12-22T18:58:57.959Z,14.43
2018-12-22T19:01:31.517Z,15.53
2018-12-22T19:04:04.692Z,13.50
2018-12-22T19:06:34.253Z,17.70
2018-12-22T19:09:08.131Z,16.23
2018-12-22T19:11:39.247Z,14.83
2018-12-22T19:14:09.297Z,15.17
2018-12-22T19:16:39.292Z,18.10
2018-12-22T19:19:09.952Z,14.53
2018-12-22T19:21:39.646Z,15.23
2018-12-22T19:24:09.332Z,16.87
2018-12-22T19:26:39.601Z,17.63
2018-12-22T19:29:09.258Z,13.10
2018-12-22T19:31:41.862Z,15.27
2018-12-22T19:34:10.694Z,15.07
2018-12-22T19:36:40.405Z,15.33
2018-12-22T19:39:10.260Z,16.50
2018-12-22T19:41:40.043Z,17.70
2018-12-22T19:44:09.793Z,16.57
2018-12-22T19:46:39.819Z,18.57
2018-12-22T19:49:09.588Z,19.27
2018-12-22T19:51:39.575Z,19.50
2018-12-22T19:54:11.258Z,21.20
2018-12-22T19:56:40.986Z,22.33
2018-12-22T19:59:10.671Z,20.03
2018-12-22T20:01:40.337Z,19.30
2018-12-22T20:04:10.806Z,19.40
2018-12-22T20:06:40.671Z,21.27
2018-12-22T20:09:10.258Z,26.17
2018-12-22T20:11:39.899Z,20.93
2018-12-22T20:14:09.602Z,21.30
2018-12-22T20:16:38.875Z,21.00
2018-12-22T20:19:10.457Z,19.50
2018-12-22T20:21:40.138Z,19.60
2018-12-22T20:24:09.765Z,20.77
2018-12-22T20:26:38.931Z,17.93
2018-12-22T20:29:18.934Z,26.87
2018-12-22T20:32:01.356Z,19.07
2018-12-22T20:34:39.003Z,18.53
2018-12-22T20:37:14.329Z,21.57
2018-12-22T20:39:43.963Z,18.80
2018-12-22T20:42:14.303Z,25.93
2018-12-22T20:44:43.783Z,23.73
2018-12-22T20:47:13.967Z,23.90
2018-12-22T20:49:43.600Z,25.40
2018-12-22T20:52:12.989Z,24.40
2018-12-22T20:54:43.760Z,26.03
2018-12-22T20:57:13.566Z,21.97
2018-12-22T20:59:44.243Z,18.27
2018-12-22T21:02:15.065Z,18.37
2018-12-22T21:04:47.588Z,24.30
2018-12-22T21:07:18.732Z,18.07
2018-12-22T21:09:52.132Z,22.20
2018-12-22T21:12:23.471Z,25.23
2018-12-22T21:14:54.883Z,16.20
2018-12-22T21:17:25.071Z,15.77
2018-12-22T21:19:55.878Z,19.00
2018-12-22T21:22:26.269Z,18.70
2018-12-22T21:24:56.674Z,19.93
2018-12-22T21:27:27.350Z,18.70
2018-12-22T21:29:57.542Z,20.80
2018-12-22T21:32:28.237Z,19.70
2018-12-22T21:34:58.686Z,17.93
2018-12-22T21:37:29.503Z,19.10
2018-12-22T21:40:00.548Z,17.37
2018-12-22T21:42:30.094Z,19.73
2018-12-22T21:44:59.778Z,17.10
2018-12-22T21:47:29.343Z,16.87
2018-12-22T21:49:59.110Z,17.20
2018-12-22T21:52:28.626Z,17.53
2018-12-22T21:54:58.311Z,19.37
2018-12-22T21:57:27.863Z,18.60
2018-12-22T21:59:57.484Z,20.50
2018-12-22T22:02:27.144Z,19.13
2018-12-22T22:04:56.693Z,17.33
2018-12-22T22:07:26.274Z,18.80
2018-12-22T22:09:55.918Z,19.80
2018-12-22T22:12:25.590Z,20.23
2018-12-22T22:14:55.287Z,19.10
2018-12-22T22:17:24.823Z,21.57
2018-12-22T22:19:54.018Z,16.33
2018-12-22T22:22:25.620Z,15.00
2018-12-22T22:24:55.488Z,16.00
2018-12-22T22:27:25.138Z,19.20
2018-12-22T22:29:54.968Z,17.13
2018-12-22T22:32:24.963Z,19.47
2018-12-22T22:34:54.458Z,22.43
2018-12-22T22:37:23.999Z,20.10
2018-12-22T22:39:53.589Z,19.33
2018-12-22T22:42:22.878Z,20.60
2018-12-22T22:44:52.362Z,18.70
2018-12-22T22:47:22.086Z,16.83
2018-12-22T22:49:51.718Z,19.30
2018-12-22T22:52:21.430Z,20.40
2018-12-22T22:54:51.195Z,18.10
2018-12-22T22:57:20.743Z,20.67
2018-12-22T22:59:50.426Z,19.57
2018-12-22T23:02:19.987Z,19.77
2018-12-22T23:04:54.445Z,18.70
2018-12-22T23:07:21.110Z,19.83
2018-12-22T23:09:50.806Z,19.10
2018-12-22T23:12:20.506Z,20.97
2018-12-22T23:14:50.185Z,20.37
2018-12-22T23:17:21.689Z,23.47
2018-12-22T23:19:52.929Z,22.67
2018-12-22T23:22:23.827Z,19.50
2018-12-22T23:24:55.181Z,19.70
2018-12-22T23:27:25.709Z,22.40
2018-12-22T23:29:56.709Z,18.37
2018-12-22T23:32:27.949Z,19.10
2018-12-22T23:35:02.990Z,16.10
2018-12-22T23:37:32.203Z,21.07
2018-12-22T23:40:02.667Z,20.77
2018-12-22T23:42:33.949Z,23.10
2018-12-22T23:45:06.757Z,18.63
2018-12-22T23:47:37.021Z,20.40
2018-12-22T23:50:08.494Z,18.30
2018-12-22T23:52:40.643Z,17.83
2018-12-22T23:55:11.752Z,15.17
2018-12-22T23:57:42.025Z,19.23
